Time;durP1;ratioP1;P1;durP2;ratioP2;P2;SDS_P1;SDS_P2;PMS_P1;PMS_P2;Temp;Humidity;BMP_temperature;BMP_pressure;BME280_temperature;BME280_humidity;BME280_pressure;Samples;Min_cycle;Max_cycle;Signal;HPM_P1;HPM_P2
2023/04/14 00:02:23;;;;;;;63.88;9.00;;;;;;;;;;5072829;28;20212;-68
2023/04/14 00:04:53;;;;;;;62.20;7.57;;;;;;;;;;5073066;28;20304;-68
2023/04/14 00:07:20;;;;;;;62.72;8.23;;;;;;;;;;5072559;28;20196;-68
2023/04/14 00:09:47;;;;;;;64.32;8.25;;;;;;;;;;5072383;28;20236;-69
2023/04/14 00:12:14;;;;;;;65.88;8.35;;;;;;;;;;5072759;28;20211;-68
2023/04/14 00:14:43;;;;;;;62.72;8.20;;;;;;;;;;5072614;28;20658;-68
2023/04/14 00:17:10;;;;;;;63.60;8.73;;;;;;;;;;5072431;28;20213;-69
2023/04/14 00:19:37;;;;;;;63.25;7.85;;;;;;;;;;5072326;28;20217;-69
2023/04/14 00:22:05;;;;;;;62.75;7.10;;;;;;;;;;5072737;28;20594;-69
2023/04/14 00:24:39;;;;;;;64.53;8.43;;;;;;;;;;5072504;28;20213;-68
2023/04/14 00:27:06;;;;;;;62.05;7.72;;;;;;;;;;5072459;28;20205;-68
2023/04/14 00:29:34;;;;;;;65.55;7.80;;;;;;;;;;5071794;28;20225;-68
2023/04/14 00:32:01;;;;;;;63.10;8.13;;;;;;;;;;5072260;28;20209;-68
2023/04/14 00:34:28;;;;;;;61.72;7.55;;;;;;;;;;5072452;28;20204;-68
2023/04/14 00:36:55;;;;;;;63.85;8.82;;;;;;;;;;5072425;28;20211;-68
2023/04/14 00:39:24;;;;;;;66.28;8.10;;;;;;;;;;5071800;28;20233;-68
2023/04/14 00:41:51;;;;;;;65.20;8.65;;;;;;;;;;5072098;28;20207;-68
2023/04/14 00:44:18;;;;;;;65.15;8.90;;;;;;;;;;5072327;28;20209;-68
2023/04/14 00:46:45;;;;;;;67.93;9.40;;;;;;;;;;5072236;28;20205;-68
2023/04/14 00:49:12;;;;;;;66.47;9.70;;;;;;;;;;5071560;28;20228;-68
2023/04/14 00:51:39;;;;;;;68.07;10.30;;;;;;;;;;5072032;28;20209;-68
2023/04/14 00:54:07;;;;;;;66.78;9.55;;;;;;;;;;5072284;28;20211;-68
2023/04/14 00:56:36;;;;;;;66.72;10.20;;;;;;;;;;5072150;28;20780;-68
2023/04/14 00:59:03;;;;;;;71.03;9.50;;;;;;;;;;5071542;28;20221;-68
2023/04/14 01:01:32;;;;;;;63.47;9.68;;;;;;;;;;5072133;28;20209;-68
2023/04/14 01:03:59;;;;;;;65.78;10.40;;;;;;;;;;5071994;28;20204;-68
2023/04/14 01:06:27;;;;;;;65.28;9.55;;;;;;;;;;5072365;28;20221;-68
2023/04/14 01:08:54;;;;;;;65.05;9.98;;;;;;;;;;5071405;28;20229;-68
2023/04/14 01:11:26;;;;;;;66.57;9.23;;;;;;;;;;5071934;28;20209;-68
2023/04/14 01:14:03;;;;;;;66.63;10.60;;;;;;;;;;5072005;28;20201;-68
2023/04/14 01:16:32;;;;;;;66.88;10.68;;;;;;;;;;5071927;28;20205;-68
2023/04/14 01:19:04;;;;;;;69.57;11.45;;;;;;;;;;5071345;28;20225;-68
2023/04/14 01:21:32;;;;;;;65.55;10.10;;;;;;;;;;5071713;28;20673;-68
2023/04/14 01:24:09;;;;;;;66.97;10.90;;;;;;;;;;5071738;28;20638;-68
2023/04/14 01:26:37;;;;;;;71.25;13.02;;;;;;;;;;5072894;28;20204;-68
2023/04/14 01:29:28;;;;;;;67.30;10.10;;;;;;;;;;5071380;28;20231;-68
2023/04/14 01:32:01;;;;;;;67.70;11.70;;;;;;;;;;5056510;28;20577;-68
2023/04/14 01:34:32;;;;;;;65.68;11.05;;;;;;;;;;5071751;28;20746;-68
2023/04/14 01:37:05;;;;;;;70.80;12.13;;;;;;;;;;5072129;28;20218;-69
2023/04/14 01:39:35;;;;;;;69.28;11.32;;;;;;;;;;5071504;28;20728;-68
2023/04/14 01:42:05;;;;;;;68.57;12.23;;;;;;;;;;5072129;28;20658;-69
2023/04/14 01:44:33;;;;;;;67.90;11.00;;;;;;;;;;5071895;28;20212;-69
2023/04/14 01:47:03;;;;;;;70.88;12.05;;;;;;;;;;5071765;28;20208;-68
2023/04/14 01:49:32;;;;;;;69.00;10.63;;;;;;;;;;5071683;28;20229;-68
2023/04/14 01:52:00;;;;;;;71.50;11.48;;;;;;;;;;5071870;28;20212;-68
2023/04/14 01:54:27;;;;;;;68.22;10.73;;;;;;;;;;5071768;28;20205;-68
2023/04/14 01:56:55;;;;;;;69.30;12.27;;;;;;;;;;5070160;28;20202;-68
2023/04/14 01:59:23;;;;;;;72.38;12.25;;;;;;;;;;5071215;28;20603;-68
2023/04/14 02:01:51;;;;;;;70.43;12.60;;;;;;;;;;5071730;28;20224;-68
2023/04/14 02:04:21;;;;;;;69.60;12.00;;;;;;;;;;5071680;28;20223;-68
2023/04/14 02:06:49;;;;;;;68.68;11.25;;;;;;;;;;5071508;28;20212;-68
2023/04/14 02:09:17;;;;;;;69.07;11.07;;;;;;;;;;5071157;28;20573;-69
2023/04/14 02:11:44;;;;;;;69.97;11.70;;;;;;;;;;5071500;28;20201;-68
2023/04/14 02:14:11;;;;;;;71.75;11.60;;;;;;;;;;5071899;28;20209;-68
2023/04/14 02:16:39;;;;;;;70.70;13.45;;;;;;;;;;5071513;28;20211;-68
2023/04/14 02:19:07;;;;;;;69.13;12.07;;;;;;;;;;5070898;28;20796;-68
2023/04/14 02:21:36;;;;;;;71.57;13.10;;;;;;;;;;5071610;28;20235;-68
2023/04/14 02:24:03;;;;;;;68.50;11.80;;;;;;;;;;5071397;28;20255;-68
2023/04/14 02:26:32;;;;;;;73.45;12.32;;;;;;;;;;5071632;28;20217;-68
2023/04/14 02:29:03;;;;;;;71.40;13.13;;;;;;;;;;5071608;28;20225;-68
2023/04/14 02:31:31;;;;;;;72.15;13.02;;;;;;;;;;5074946;28;20205;-68
2023/04/14 02:34:00;;;;;;;73.95;12.50;;;;;;;;;;5075079;28;20201;-68
2023/04/14 02:36:31;;;;;;;73.30;12.10;;;;;;;;;;5075162;28;20556;-68
2023/04/14 02:39:01;;;;;;;73.78;12.60;;;;;;;;;;5074581;28;20274;-68
2023/04/14 02:41:30;;;;;;;70.70;12.70;;;;;;;;;;5074913;28;20288;-68
2023/04/14 02:44:01;;;;;;;71.82;13.00;;;;;;;;;;5074640;28;20212;-68
2023/04/14 02:46:30;;;;;;;76.85;15.85;;;;;;;;;;5075077;28;20209;-69
2023/04/14 02:48:59;;;;;;;72.55;13.57;;;;;;;;;;5074506;28;20720;-68
2023/04/14 02:51:26;;;;;;;71.53;12.50;;;;;;;;;;5074632;28;20225;-68
2023/04/14 02:53:54;;;;;;;76.97;13.43;;;;;;;;;;5074340;28;20211;-68
2023/04/14 02:56:23;;;;;;;70.60;12.00;;;;;;;;;;5074457;28;20205;-68
2023/04/14 02:58:51;;;;;;;70.78;12.82;;;;;;;;;;5074110;28;20225;-68
2023/04/14 03:01:19;;;;;;;73.30;12.68;;;;;;;;;;5074663;28;20206;-68
2023/04/14 03:03:46;;;;;;;71.72;13.00;;;;;;;;;;5074589;28;20204;-68
2023/04/14 03:06:15;;;;;;;73.22;14.60;;;;;;;;;;5074470;28;20205;-69
2023/04/14 03:08:43;;;;;;;75.47;14.27;;;;;;;;;;5073847;28;20228;-68
2023/04/14 03:11:12;;;;;;;74.45;13.98;;;;;;;;;;5074237;28;20221;-68
2023/04/14 03:13:41;;;;;;;72.97;13.93;;;;;;;;;;5074632;28;20205;-69
2023/04/14 03:16:09;;;;;;;71.30;13.70;;;;;;;;;;5073957;28;20209;-68
2023/04/14 03:18:36;;;;;;;77.35;14.85;;;;;;;;;;5073684;28;20221;-69
2023/04/14 03:21:04;;;;;;;77.75;15.55;;;;;;;;;;5073985;28;20197;-68
2023/04/14 03:23:32;;;;;;;80.57;17.40;;;;;;;;;;5073759;28;20217;-68
2023/04/14 03:26:02;;;;;;;77.13;15.80;;;;;;;;;;5074260;28;20209;-68
2023/04/14 03:28:30;;;;;;;77.28;16.15;;;;;;;;;;5073791;28;20271;-69
2023/04/14 03:31:02;;;;;;;87.43;18.20;;;;;;;;;;5073882;28;20606;-69
2023/04/14 03:33:32;;;;;;;79.95;16.42;;;;;;;;;;5073950;28;20276;-68
2023/04/14 03:36:00;;;;;;;78.75;15.80;;;;;;;;;;5074100;28;20205;-68
2023/04/14 03:38:28;;;;;;;105.90;19.52;;;;;;;;;;5073449;28;20770;-67
2023/04/14 03:40:58;;;;;;;87.60;18.45;;;;;;;;;;5072527;28;20300;-68
2023/04/14 03:43:26;;;;;;;82.93;16.77;;;;;;;;;;5073979;28;20205;-68
2023/04/14 03:45:53;;;;;;;79.40;14.90;;;;;;;;;;5073453;28;20255;-68
2023/04/14 03:48:25;;;;;;;125.63;20.23;;;;;;;;;;5073716;28;20570;-67
2023/04/14 03:50:53;;;;;;;81.32;15.57;;;;;;;;;;5072877;28;20232;-67
2023/04/14 03:53:20;;;;;;;82.53;16.00;;;;;;;;;;5073345;28;20209;-67
2023/04/14 03:55:49;;;;;;;80.78;16.83;;;;;;;;;;5073199;28;20227;-67
2023/04/14 03:58:17;;;;;;;131.15;22.02;;;;;;;;;;5073113;28;20229;-67
2023/04/14 04:00:45;;;;;;;80.20;16.85;;;;;;;;;;5072691;28;20692;-67
2023/04/14 04:03:14;;;;;;;82.10;17.45;;;;;;;;;;5072968;28;20295;-67
2023/04/14 04:05:43;;;;;;;90.03;17.88;;;;;;;;;;5072962;28;20723;-68
2023/04/14 04:08:10;;;;;;;111.43;18.70;;;;;;;;;;5072773;28;20229;-68
2023/04/14 04:10:38;;;;;;;82.72;15.38;;;;;;;;;;5072490;28;20225;-67
2023/04/14 04:13:08;;;;;;;81.30;15.30;;;;;;;;;;5072931;28;20202;-67
2023/04/14 04:15:35;;;;;;;151.30;21.30;;;;;;;;;;5072621;28;20209;-67
2023/04/14 04:18:04;;;;;;;85.43;16.50;;;;;;;;;;5072677;28;20247;-68
2023/04/14 04:20:32;;;;;;;91.00;17.08;;;;;;;;;;5072514;28;20209;-67
2023/04/14 04:23:02;;;;;;;94.97;17.88;;;;;;;;;;5072493;28;20231;-68
2023/04/14 04:25:31;;;;;;;81.35;15.63;;;;;;;;;;5072697;28;20201;-68
2023/04/14 04:27:59;;;;;;;88.65;15.95;;;;;;;;;;5072317;28;20205;-68
2023/04/14 04:30:28;;;;;;;89.20;14.50;;;;;;;;;;5071945;28;20724;-67
2023/04/14 04:32:55;;;;;;;104.90;15.55;;;;;;;;;;5072497;28;20215;-67
2023/04/14 04:35:22;;;;;;;124.80;14.90;;;;;;;;;;5072625;28;20233;-68
2023/04/14 04:37:50;;;;;;;74.15;13.48;;;;;;;;;;5072271;28;20670;-68
2023/04/14 04:40:19;;;;;;;71.20;12.50;;;;;;;;;;5071859;28;20205;-68
2023/04/14 04:42:46;;;;;;;127.90;17.42;;;;;;;;;;5072130;28;20201;-68
2023/04/14 04:45:13;;;;;;;80.00;14.00;;;;;;;;;;5072398;28;20299;-68
2023/04/14 04:47:40;;;;;;;107.95;15.73;;;;;;;;;;5072337;28;20208;-67
2023/04/14 04:50:08;;;;;;;98.10;15.65;;;;;;;;;;5071650;28;20697;-68
2023/04/14 04:52:35;;;;;;;128.45;17.60;;;;;;;;;;5071878;28;20383;-67
2023/04/14 04:55:02;;;;;;;98.47;14.90;;;;;;;;;;5072064;28;20209;-68
2023/04/14 04:57:30;;;;;;;90.63;12.98;;;;;;;;;;5072182;28;20566;-67
2023/04/14 04:59:57;;;;;;;100.20;12.43;;;;;;;;;;5071824;28;20232;-67
2023/04/14 05:02:25;;;;;;;77.50;13.13;;;;;;;;;;5072095;28;20201;-67
2023/04/14 05:04:52;;;;;;;82.78;12.38;;;;;;;;;;5072015;28;20205;-67
2023/04/14 05:07:19;;;;;;;70.25;11.15;;;;;;;;;;5071951;28;20216;-67
2023/04/14 05:09:47;;;;;;;74.30;13.63;;;;;;;;;;5071484;28;20310;-67
2023/04/14 05:12:14;;;;;;;74.03;14.35;;;;;;;;;;5071775;28;20514;-67
2023/04/14 05:14:42;;;;;;;165.43;22.02;;;;;;;;;;5072002;28;20649;-68
2023/04/14 05:17:09;;;;;;;112.38;17.85;;;;;;;;;;5071752;28;20205;-67
2023/04/14 05:19:37;;;;;;;107.50;17.10;;;;;;;;;;5071696;28;20751;-67
2023/04/14 05:22:05;;;;;;;110.38;17.48;;;;;;;;;;5071676;28;20212;-67
2023/04/14 05:24:32;;;;;;;85.10;14.07;;;;;;;;;;5071539;28;20587;-67
2023/04/14 05:27:00;;;;;;;87.22;16.05;;;;;;;;;;5071827;28;20207;-67
2023/04/14 05:29:27;;;;;;;101.93;17.25;;;;;;;;;;5071340;28;20229;-68
2023/04/14 05:31:55;;;;;;;82.80;13.88;;;;;;;;;;5071628;28;20225;-68
2023/04/14 05:34:23;;;;;;;96.40;15.27;;;;;;;;;;5071796;28;20205;-67
2023/04/14 05:36:50;;;;;;;74.78;13.88;;;;;;;;;;5071786;28;20201;-67
2023/04/14 05:39:17;;;;;;;79.70;14.63;;;;;;;;;;5071481;28;20264;-67
2023/04/14 05:41:44;;;;;;;84.28;15.30;;;;;;;;;;5071764;28;20201;-67
2023/04/14 05:44:11;;;;;;;74.60;13.73;;;;;;;;;;5071643;28;20212;-67
2023/04/14 05:46:38;;;;;;;71.75;13.85;;;;;;;;;;5071560;28;20296;-67
2023/04/14 05:49:07;;;;;;;72.43;14.13;;;;;;;;;;5071143;28;20744;-67
2023/04/14 05:51:35;;;;;;;77.70;14.35;;;;;;;;;;5071318;28;20229;-67
2023/04/14 05:54:02;;;;;;;76.60;14.52;;;;;;;;;;5071636;28;20209;-67
2023/04/14 05:56:29;;;;;;;75.50;13.23;;;;;;;;;;5071637;28;20205;-67
2023/04/14 05:58:56;;;;;;;91.43;15.10;;;;;;;;;;5071129;28;20225;-67
2023/04/14 06:01:23;;;;;;;77.32;12.50;;;;;;;;;;5071403;28;20201;-67
2023/04/14 06:03:50;;;;;;;83.70;14.88;;;;;;;;;;5071694;28;20216;-68
2023/04/14 06:06:19;;;;;;;94.82;15.80;;;;;;;;;;5075019;28;20205;-68
2023/04/14 06:08:46;;;;;;;94.18;14.20;;;;;;;;;;5074938;28;20225;-67
2023/04/14 06:11:14;;;;;;;102.30;14.30;;;;;;;;;;5074937;28;20225;-67
2023/04/14 06:13:41;;;;;;;72.00;13.50;;;;;;;;;;5075116;28;20208;-67
2023/04/14 06:16:08;;;;;;;77.05;14.98;;;;;;;;;;5074901;28;20205;-68
2023/04/14 06:18:35;;;;;;;71.75;13.60;;;;;;;;;;5074411;28;20231;-68
2023/04/14 06:21:03;;;;;;;74.85;13.63;;;;;;;;;;5074871;28;20665;-68
2023/04/14 06:23:31;;;;;;;68.38;11.80;;;;;;;;;;5074958;28;20236;-67
2023/04/14 06:25:59;;;;;;;68.50;12.48;;;;;;;;;;5074999;28;20274;-68
2023/04/14 06:28:26;;;;;;;70.43;13.10;;;;;;;;;;5074716;28;20231;-68
2023/04/14 06:30:53;;;;;;;74.75;14.57;;;;;;;;;;5074439;28;20228;-67
2023/04/14 06:33:21;;;;;;;71.05;12.90;;;;;;;;;;5074484;28;20240;-67
2023/04/14 06:35:48;;;;;;;70.68;13.10;;;;;;;;;;5074757;28;20209;-67
2023/04/14 06:38:15;;;;;;;72.03;13.85;;;;;;;;;;5074422;28;20783;-68
2023/04/14 06:40:43;;;;;;;69.72;13.25;;;;;;;;;;5074505;28;20208;-67
2023/04/14 06:43:11;;;;;;;69.63;13.55;;;;;;;;;;5074608;28;20209;-68
2023/04/14 06:45:38;;;;;;;72.18;13.75;;;;;;;;;;5074378;28;20734;-67
2023/04/14 06:48:06;;;;;;;70.10;13.13;;;;;;;;;;5074163;28;20225;-67
2023/04/14 06:50:33;;;;;;;73.50;14.13;;;;;;;;;;5074172;28;20201;-68
2023/04/14 06:53:00;;;;;;;76.25;14.35;;;;;;;;;;5074497;28;20205;-67
2023/04/14 06:55:27;;;;;;;68.28;12.05;;;;;;;;;;5074218;28;20673;-67
2023/04/14 06:57:56;;;;;;;80.82;12.68;;;;;;;;;;5074165;28;20206;-67
2023/04/14 07:00:23;;;;;;;69.22;13.18;;;;;;;;;;5073866;28;20695;-67
2023/04/14 07:02:50;;;;;;;72.97;14.57;;;;;;;;;;5074328;28;20205;-67
2023/04/14 07:05:18;;;;;;;74.10;13.55;;;;;;;;;;5074294;28;20208;-67
2023/04/14 07:07:45;;;;;;;76.90;17.33;;;;;;;;;;5074099;28;20232;-67
2023/04/14 07:10:12;;;;;;;74.90;15.60;;;;;;;;;;5073630;28;20700;-67
2023/04/14 07:12:39;;;;;;;74.22;14.52;;;;;;;;;;5073854;28;20226;-67
2023/04/14 07:15:09;;;;;;;79.68;14.90;;;;;;;;;;5073645;28;20216;-67
2023/04/14 07:17:36;;;;;;;71.80;13.40;;;;;;;;;;5073983;28;20201;-69
2023/04/14 07:20:04;;;;;;;74.63;14.25;;;;;;;;;;5073493;28;20236;-67
2023/04/14 07:22:32;;;;;;;74.43;13.40;;;;;;;;;;5073871;28;20198;-67
2023/04/14 07:24:59;;;;;;;73.25;14.00;;;;;;;;;;5073698;28;20314;-70
2023/04/14 07:27:27;;;;;;;76.80;14.65;;;;;;;;;;5073576;28;20205;-70
2023/04/14 07:29:54;;;;;;;67.25;11.70;;;;;;;;;;5073254;28;20312;-70
2023/04/14 07:32:23;;;;;;;69.47;10.88;;;;;;;;;;5073616;28;20225;-70
2023/04/14 07:34:50;;;;;;;68.82;12.60;;;;;;;;;;5073683;28;20206;-69
2023/04/14 07:37:17;;;;;;;71.43;12.20;;;;;;;;;;5073555;28;20259;-69
2023/04/14 07:39:44;;;;;;;64.32;8.85;;;;;;;;;;5072956;28;20232;-67
2023/04/14 07:42:11;;;;;;;70.03;9.33;;;;;;;;;;5073270;28;20201;-67
2023/04/14 07:44:39;;;;;;;68.00;7.88;;;;;;;;;;5073274;28;20966;-67
2023/04/14 07:47:06;;;;;;;64.70;8.30;;;;;;;;;;5073433;28;20205;-68
2023/04/14 07:49:34;;;;;;;67.95;9.05;;;;;;;;;;5072807;28;20225;-67
2023/04/14 07:52:02;;;;;;;63.33;7.55;;;;;;;;;;5073142;28;20247;-68
2023/04/14 07:54:29;;;;;;;61.77;6.17;;;;;;;;;;5073261;28;20205;-67
2023/04/14 07:56:56;;;;;;;60.10;5.27;;;;;;;;;;5073253;28;20470;-68
2023/04/14 07:59:24;;;;;;;60.37;4.43;;;;;;;;;;5072950;28;20467;-67
2023/04/14 08:01:51;;;;;;;60.83;4.70;;;;;;;;;;5073050;28;20859;-67
2023/04/14 08:04:18;;;;;;;61.47;4.87;;;;;;;;;;5072983;28;20452;-69
2023/04/14 08:06:46;;;;;;;62.33;4.40;;;;;;;;;;5072993;28;20455;-69
2023/04/14 08:09:14;;;;;;;61.87;4.17;;;;;;;;;;5072354;28;20473;-69
2023/04/14 08:11:41;;;;;;;61.30;4.67;;;;;;;;;;5073056;28;20556;-69
2023/04/14 08:14:08;;;;;;;63.23;4.93;;;;;;;;;;5072795;28;20452;-67
2023/04/14 08:16:35;;;;;;;61.67;5.60;;;;;;;;;;5072552;28;20453;-67
2023/04/14 08:19:03;;;;;;;62.27;4.93;;;;;;;;;;5072228;28;20475;-67
2023/04/14 08:21:30;;;;;;;62.33;4.67;;;;;;;;;;5072477;28;20446;-67
2023/04/14 08:23:58;;;;;;;60.57;4.47;;;;;;;;;;5072621;28;20508;-67
2023/04/14 08:26:26;;;;;;;63.80;5.30;;;;;;;;;;5072079;28;20451;-67
2023/04/14 08:28:53;;;;;;;63.33;4.70;;;;;;;;;;5071866;28;21074;-68
2023/04/14 08:31:23;;;;;;;68.27;5.33;;;;;;;;;;5072389;28;20479;-68
2023/04/14 08:33:50;;;;;;;64.40;4.80;;;;;;;;;;5072366;28;20939;-67
2023/04/14 08:36:17;;;;;;;60.97;4.50;;;;;;;;;;5072151;28;20448;-68
2023/04/14 08:38:44;;;;;;;65.77;4.13;;;;;;;;;;5071978;28;20471;-68
2023/04/14 08:41:13;;;;;;;61.80;3.87;;;;;;;;;;5072473;28;20793;-68
2023/04/14 08:43:40;;;;;;;65.70;4.73;;;;;;;;;;5072397;28;20470;-68
2023/04/14 08:46:10;;;;;;;60.17;4.17;;;;;;;;;;5072196;28;20447;-68
2023/04/14 08:48:38;;;;;;;62.03;4.70;;;;;;;;;;5071661;28;20467;-69
2023/04/14 08:51:07;;;;;;;65.07;4.53;;;;;;;;;;5071985;28;20459;-69
2023/04/14 08:53:36;;;;;;;61.20;4.20;;;;;;;;;;5072207;28;20446;-68
2023/04/14 08:56:04;;;;;;;60.27;3.80;;;;;;;;;;5072147;28;20447;-68
2023/04/14 08:58:33;;;;;;;61.97;4.47;;;;;;;;;;5071911;28;20999;-65
2023/04/14 09:01:00;;;;;;;61.10;4.20;;;;;;;;;;5072362;28;20932;-66
2023/04/14 09:03:27;;;;;;;62.73;4.20;;;;;;;;;;5071903;28;20450;-66
2023/04/14 09:05:55;;;;;;;60.77;3.90;;;;;;;;;;5071921;28;20447;-66
2023/04/14 09:08:23;;;;;;;61.50;4.03;;;;;;;;;;5071707;28;20473;-66
2023/04/14 09:10:50;;;;;;;64.13;4.30;;;;;;;;;;5071691;28;20974;-67
2023/04/14 09:13:19;;;;;;;61.73;4.27;;;;;;;;;;5071834;28;20487;-65
2023/04/14 09:15:50;;;;;;;62.13;4.57;;;;;;;;;;5071673;28;20451;-67
2023/04/14 09:18:17;;;;;;;66.63;4.97;;;;;;;;;;5071828;28;21000;-66
2023/04/14 09:20:47;;;;;;;64.67;4.80;;;;;;;;;;5071686;28;20455;-66
2023/04/14 09:23:14;;;;;;;61.80;4.30;;;;;;;;;;5071734;28;20455;-67
2023/04/14 09:25:42;;;;;;;62.57;4.93;;;;;;;;;;5071701;28;20443;-66
2023/04/14 09:28:09;;;;;;;59.67;3.83;;;;;;;;;;5071494;28;20467;-69
2023/04/14 09:30:36;;;;;;;63.77;4.43;;;;;;;;;;5071639;28;20641;-68
2023/04/14 09:33:06;;;;;;;60.87;4.83;;;;;;;;;;5071744;28;20490;-69
2023/04/14 09:35:43;;;;;;;65.80;4.60;;;;;;;;;;5071923;28;20989;-69
2023/04/14 09:38:10;;;;;;;65.80;4.67;;;;;;;;;;5073079;28;20467;-69
2023/04/14 09:40:38;;;;;;;60.27;4.17;;;;;;;;;;5075354;28;20952;-69
2023/04/14 09:43:05;;;;;;;61.53;4.60;;;;;;;;;;5075746;28;20473;-69
2023/04/14 09:45:42;;;;;;;61.67;4.13;;;;;;;;;;5075815;28;20477;-69
2023/04/14 09:48:11;;;;;;;61.40;4.27;;;;;;;;;;5075508;28;20467;-69
2023/04/14 09:51:05;;;;;;;61.27;3.73;;;;;;;;;;5075529;28;20458;-68
2023/04/14 09:53:33;;;;;;;60.73;3.70;;;;;;;;;;5061537;28;20487;-69
2023/04/14 09:56:01;;;;;;;63.97;4.63;;;;;;;;;;5075673;28;20978;-69
2023/04/14 09:58:30;;;;;;;62.10;4.20;;;;;;;;;;5075212;28;20467;-67
2023/04/14 10:00:58;;;;;;;65.53;3.90;;;;;;;;;;5075211;28;20457;-67
2023/04/14 10:03:34;;;;;;;67.00;4.23;;;;;;;;;;5075284;28;20443;-66
2023/04/14 10:06:03;;;;;;;61.10;4.20;;;;;;;;;;5075455;28;20451;-67
2023/04/14 10:08:37;;;;;;;62.43;4.40;;;;;;;;;;5075026;28;20892;-67
2023/04/14 10:11:18;;;;;;;60.80;4.17;;;;;;;;;;5075311;28;20447;-67
2023/04/14 10:13:45;;;;;;;62.57;5.00;;;;;;;;;;5074849;28;20482;-67
2023/04/14 10:16:12;;;;;;;62.77;4.20;;;;;;;;;;5074950;28;20791;-67
2023/04/14 10:18:40;;;;;;;63.20;4.63;;;;;;;;;;5074758;28;20467;-67
2023/04/14 10:21:08;;;;;;;62.07;4.10;;;;;;;;;;5074824;28;20961;-68
2023/04/14 10:23:37;;;;;;;61.50;4.43;;;;;;;;;;5074920;28;20466;-67
2023/04/14 10:26:05;;;;;;;64.33;4.30;;;;;;;;;;5074864;28;20451;-67
2023/04/14 10:28:32;;;;;;;63.40;4.40;;;;;;;;;;5074392;28;20459;-70
2023/04/14 10:31:01;;;;;;;59.57;3.40;;;;;;;;;;5074811;28;20459;-67
2023/04/14 10:33:28;;;;;;;65.47;4.33;;;;;;;;;;5074815;28;20479;-68
2023/04/14 10:35:59;;;;;;;61.60;3.77;;;;;;;;;;5074758;28;20450;-67
2023/04/14 10:38:37;;;;;;;61.23;4.33;;;;;;;;;;5074503;28;20471;-67
2023/04/14 10:41:05;;;;;;;62.77;4.80;;;;;;;;;;5074501;28;20447;-67
2023/04/14 10:43:33;;;;;;;63.17;3.97;;;;;;;;;;5074431;28;20454;-67
2023/04/14 10:46:01;;;;;;;63.20;4.30;;;;;;;;;;5074612;28;20497;-67
2023/04/14 10:48:32;;;;;;;61.23;3.50;;;;;;;;;;5074371;28;20467;-67
2023/04/14 10:51:02;;;;;;;60.87;4.07;;;;;;;;;;5073947;28;20448;-68
2023/04/14 10:53:35;;;;;;;69.87;4.13;;;;;;;;;;5074334;28;20479;-67
2023/04/14 10:56:03;;;;;;;62.60;4.13;;;;;;;;;;5074284;28;20487;-67
2023/04/14 10:58:31;;;;;;;60.67;3.87;;;;;;;;;;5074110;28;20537;-67
2023/04/14 11:00:58;;;;;;;59.20;3.80;;;;;;;;;;5074439;28;20457;-67
2023/04/14 11:03:30;;;;;;;63.27;4.20;;;;;;;;;;5074165;28;20458;-67
2023/04/14 11:05:58;;;;;;;61.60;3.83;;;;;;;;;;5074145;28;20504;-67
2023/04/14 11:08:27;;;;;;;60.40;3.93;;;;;;;;;;5073774;28;20475;-67
2023/04/14 11:11:01;;;;;;;60.80;4.17;;;;;;;;;;5074069;28;20448;-67
2023/04/14 11:13:29;;;;;;;63.13;4.30;;;;;;;;;;5073980;28;20578;-66
2023/04/14 11:15:58;;;;;;;61.80;4.40;;;;;;;;;;5073951;28;20458;-67
2023/04/14 11:18:33;;;;;;;59.17;3.73;;;;;;;;;;5074192;28;20972;-67
2023/04/14 11:21:04;;;;;;;61.67;3.90;;;;;;;;;;5074073;28;20458;-67
2023/04/14 11:23:33;;;;;;;63.83;4.30;;;;;;;;;;5073617;28;20451;-67
2023/04/14 11:26:01;;;;;;;60.20;4.00;;;;;;;;;;5073993;28;20831;-67
2023/04/14 11:28:29;;;;;;;59.97;4.33;;;;;;;;;;5073599;28;20550;-67
2023/04/14 11:30:58;;;;;;;61.63;3.60;;;;;;;;;;5073834;28;20455;-67
2023/04/14 11:33:27;;;;;;;60.40;3.90;;;;;;;;;;5073462;28;20544;-67
2023/04/14 11:35:54;;;;;;;61.03;4.00;;;;;;;;;;5074067;28;20449;-67
2023/04/14 11:38:21;;;;;;;60.37;4.03;;;;;;;;;;5073700;28;20471;-67
2023/04/14 11:40:50;;;;;;;61.57;3.60;;;;;;;;;;5073305;28;20443;-67
2023/04/14 11:43:17;;;;;;;61.40;4.13;;;;;;;;;;5073422;28;20819;-67
2023/04/14 11:45:46;;;;;;;60.47;4.07;;;;;;;;;;5073236;28;20455;-69
2023/04/14 11:48:14;;;;;;;60.00;3.97;;;;;;;;;;5073347;28;20471;-69
2023/04/14 11:50:42;;;;;;;60.27;3.80;;;;;;;;;;5072955;28;20455;-68
2023/04/14 11:53:10;;;;;;;62.90;3.93;;;;;;;;;;5073031;28;20483;-69
2023/04/14 11:55:38;;;;;;;60.00;3.80;;;;;;;;;;5073065;28;20974;-67
2023/04/14 11:58:06;;;;;;;62.60;3.70;;;;;;;;;;5072864;28;20570;-67
2023/04/14 12:00:33;;;;;;;60.00;3.50;;;;;;;;;;5072764;28;20443;-67
2023/04/14 12:03:02;;;;;;;58.97;3.30;;;;;;;;;;5072006;28;20450;-67
2023/04/14 12:05:30;;;;;;;59.30;3.23;;;;;;;;;;5073260;28;20451;-67
2023/04/14 12:07:59;;;;;;;61.70;4.03;;;;;;;;;;5072818;28;20447;-67
2023/04/14 12:10:26;;;;;;;62.23;3.80;;;;;;;;;;5072675;28;20524;-67
2023/04/14 12:12:59;;;;;;;61.40;3.90;;;;;;;;;;5072474;28;20486;-67
2023/04/14 12:15:27;;;;;;;59.50;3.40;;;;;;;;;;5072913;28;21000;-67
2023/04/14 12:17:55;;;;;;;60.07;3.70;;;;;;;;;;5072895;28;21091;-67
2023/04/14 12:20:23;;;;;;;60.37;3.20;;;;;;;;;;5072394;28;21016;-67
2023/04/14 12:22:50;;;;;;;59.57;3.20;;;;;;;;;;5072578;28;20538;-67
2023/04/14 12:25:18;;;;;;;62.63;3.47;;;;;;;;;;5072466;28;20820;-67
2023/04/14 12:27:51;;;;;;;60.20;2.93;;;;;;;;;;5072677;28;20443;-67
2023/04/14 12:30:20;;;;;;;59.40;3.50;;;;;;;;;;5072336;28;20854;-66
2023/04/14 12:32:49;;;;;;;60.03;3.57;;;;;;;;;;5072393;28;20570;-68
2023/04/14 12:35:16;;;;;;;64.43;3.60;;;;;;;;;;5072401;28;20454;-67
2023/04/14 12:37:48;;;;;;;58.00;3.17;;;;;;;;;;5072194;28;20455;-67
2023/04/14 12:40:16;;;;;;;59.37;3.17;;;;;;;;;;5072341;28;20458;-68
2023/04/14 12:42:44;;;;;;;58.37;3.10;;;;;;;;;;5072326;28;20447;-67
2023/04/14 12:45:11;;;;;;;57.87;3.27;;;;;;;;;;5072203;28;20935;-67
2023/04/14 12:47:38;;;;;;;60.53;3.97;;;;;;;;;;5072115;28;20944;-68
2023/04/14 12:50:20;;;;;;;60.67;3.63;;;;;;;;;;5071697;28;20525;-67
2023/04/14 12:52:48;;;;;;;61.10;3.50;;;;;;;;;;5072307;28;20494;-68
2023/04/14 12:55:19;;;;;;;59.40;3.30;;;;;;;;;;5072061;28;20448;-67
2023/04/14 12:57:46;;;;;;;61.03;4.03;;;;;;;;;;5072294;28;20863;-68
2023/04/14 13:00:14;;;;;;;59.53;3.33;;;;;;;;;;5071737;28;20454;-67
2023/04/14 13:02:42;;;;;;;59.10;3.00;;;;;;;;;;5072022;28;20439;-67
2023/04/14 13:05:10;;;;;;;59.10;2.93;;;;;;;;;;5072166;28;20553;-67
2023/04/14 13:07:38;;;;;;;59.30;3.23;;;;;;;;;;5072072;28;20458;-65
2023/04/14 13:10:07;;;;;;;59.77;2.90;;;;;;;;;;5071547;28;20467;-65
2023/04/14 13:12:34;;;;;;;61.97;3.50;;;;;;;;;;5071678;28;20820;-66
2023/04/14 13:15:01;;;;;;;59.83;3.27;;;;;;;;;;5071895;28;20820;-66
2023/04/14 13:17:28;;;;;;;59.37;3.30;;;;;;;;;;5071747;28;20454;-66
2023/04/14 13:19:56;;;;;;;58.27;3.00;;;;;;;;;;5071724;28;20835;-65
2023/04/14 13:22:23;;;;;;;58.80;3.10;;;;;;;;;;5071928;28;20456;-66
2023/04/14 13:24:50;;;;;;;59.60;3.20;;;;;;;;;;5071646;28;20457;-66
2023/04/14 13:27:19;;;;;;;59.40;3.20;;;;;;;;;;5071738;28;20486;-65
2023/04/14 13:29:46;;;;;;;57.70;2.83;;;;;;;;;;5071219;28;20477;-66
2023/04/14 13:32:13;;;;;;;57.63;2.60;;;;;;;;;;5071720;28;20459;-66
2023/04/14 13:34:40;;;;;;;59.20;3.03;;;;;;;;;;5071566;28;21011;-66
2023/04/14 13:37:07;;;;;;;58.63;2.97;;;;;;;;;;5071772;28;20482;-66
2023/04/14 13:39:34;;;;;;;58.17;2.90;;;;;;;;;;5071310;28;20475;-65
2023/04/14 13:42:02;;;;;;;58.80;3.47;;;;;;;;;;5071531;28;20458;-68
2023/04/14 13:44:31;;;;;;;62.43;3.50;;;;;;;;;;5071702;28;20443;-65
2023/04/14 13:46:59;;;;;;;58.33;3.03;;;;;;;;;;5072036;28;20867;-67
2023/04/14 13:49:26;;;;;;;58.87;2.80;;;;;;;;;;5071213;28;20471;-67
2023/04/14 13:51:53;;;;;;;59.87;3.10;;;;;;;;;;5071639;28;20827;-67
2023/04/14 13:54:20;;;;;;;59.67;2.60;;;;;;;;;;5071548;28;20474;-67
2023/04/14 13:56:47;;;;;;;59.73;3.03;;;;;;;;;;5071496;28;20443;-67
2023/04/14 13:59:15;;;;;;;59.23;3.43;;;;;;;;;;5070973;28;21022;-66
2023/04/14 14:01:43;;;;;;;58.57;3.40;;;;;;;;;;5071392;28;20966;-66
2023/04/14 14:04:10;;;;;;;58.07;2.80;;;;;;;;;;5071344;28;20454;-65
2023/04/14 14:06:37;;;;;;;58.70;3.13;;;;;;;;;;5071475;28;20469;-66
2023/04/14 14:09:05;;;;;;;57.60;2.80;;;;;;;;;;5070980;28;20465;-66
2023/04/14 14:11:32;;;;;;;59.90;3.00;;;;;;;;;;5071116;28;20479;-66
2023/04/14 14:13:59;;;;;;;58.87;2.87;;;;;;;;;;5071505;28;20495;-66
2023/04/14 14:16:26;;;;;;;57.90;2.70;;;;;;;;;;5071406;28;20456;-66
2023/04/14 14:18:55;;;;;;;58.27;2.80;;;;;;;;;;5070845;28;21246;-67
2023/04/14 14:21:22;;;;;;;59.43;3.47;;;;;;;;;;5071415;28;20768;-69
2023/04/14 14:23:49;;;;;;;59.30;3.27;;;;;;;;;;5071096;28;20462;-68
2023/04/14 14:26:16;;;;;;;58.50;3.30;;;;;;;;;;5073600;28;20542;-67
2023/04/14 14:28:43;;;;;;;59.80;2.93;;;;;;;;;;5074796;28;20467;-68
2023/04/14 14:31:10;;;;;;;59.47;3.87;;;;;;;;;;5074705;28;20901;-68